Time;durP1;ratioP1;P1;durP2;ratioP2;P2;SDS_P1;SDS_P2;PMS_P1;PMS_P2;Temp;Humidity;BMP_temperature;BMP_pressure;BME280_temperature;BME280_humidity;BME280_pressure;Samples;Min_cycle;Max_cycle;Signal;HPM_P1;HPM_P2
2020/12/09 00:02:16;;;;;;;10.43;6.27;;;5.00;72.50;;;;;;5027303;28;20055;-81
2020/12/09 00:04:42;;;;;;;8.20;5.40;;;4.90;72.50;;;;;;5026025;28;20068;-81
2020/12/09 00:07:07;;;;;;;9.03;6.00;;;5.00;72.60;;;;;;5027269;28;20034;-81
2020/12/09 00:09:33;;;;;;;9.27;6.27;;;4.90;72.50;;;;;;5026096;28;20030;-81
2020/12/09 00:11:59;;;;;;;11.53;7.33;;;4.90;72.40;;;;;;5025856;28;20030;-81
2020/12/09 00:14:25;;;;;;;14.70;8.20;;;4.90;72.50;;;;;;5026696;28;20051;-80
2020/12/09 00:16:50;;;;;;;14.70;8.10;;;4.90;72.60;;;;;;5026386;28;20165;-80
2020/12/09 00:19:16;;;;;;;9.57;6.17;;;4.90;72.70;;;;;;5025564;28;20076;-80
2020/12/09 00:21:42;;;;;;;8.50;5.70;;;4.90;72.70;;;;;;5030059;28;20038;-81
2020/12/09 00:24:07;;;;;;;11.33;5.77;;;4.90;72.60;;;;;;5028691;28;20091;-80
2020/12/09 00:26:33;;;;;;;8.53;5.00;;;4.90;72.60;;;;;;5026532;28;20034;-80
2020/12/09 00:29:00;;;;;;;8.43;3.70;;;4.90;72.70;;;;;;5027384;28;20084;-81
2020/12/09 00:31:29;;;;;;;7.23;4.00;;;4.90;72.60;;;;;;5024017;28;20476;-80
2020/12/09 00:33:55;;;;;;;7.20;4.60;;;4.90;72.70;;;;;;5030303;28;20034;-81
2020/12/09 00:36:22;;;;;;;9.47;5.20;;;4.90;72.60;;;;;;5030817;28;20033;-80
2020/12/09 00:38:49;;;;;;;7.20;5.13;;;4.90;72.50;;;;;;5018911;28;20447;-81
2020/12/09 00:41:20;;;;;;;7.13;4.97;;;4.90;72.60;;;;;;5029802;28;20036;-80
2020/12/09 00:43:46;;;;;;;10.63;5.70;;;4.90;72.70;;;;;;5029486;28;20053;-80
2020/12/09 00:46:20;;;;;;;8.03;4.70;;;4.90;72.80;;;;;;5029781;28;20388;-80
2020/12/09 00:48:46;;;;;;;7.93;5.20;;;4.90;72.80;;;;;;5029195;28;20453;-81
2020/12/09 00:51:17;;;;;;;9.90;5.50;;;4.90;72.70;;;;;;5032602;28;20116;-81
2020/12/09 00:53:42;;;;;;;8.83;5.67;;;4.90;72.60;;;;;;5034097;28;20084;-81
2020/12/09 00:56:10;;;;;;;11.73;7.63;;;4.90;72.50;;;;;;5027766;28;20486;-81
2020/12/09 00:58:36;;;;;;;14.90;7.93;;;4.90;72.50;;;;;;5031994;28;20025;-81
2020/12/09 01:01:03;;;;;;;10.70;7.37;;;4.90;72.50;;;;;;5033065;28;20025;-81
2020/12/09 01:03:30;;;;;;;9.27;5.63;;;4.90;72.50;;;;;;5029600;28;20029;-81
2020/12/09 01:05:56;;;;;;;8.30;5.60;;;4.90;72.60;;;;;;5024374;28;20073;-81
2020/12/09 01:08:22;;;;;;;8.40;5.30;;;4.90;72.70;;;;;;5027485;28;20062;-81
2020/12/09 01:10:48;;;;;;;9.83;5.40;;;4.90;72.60;;;;;;5026826;28;20029;-81
2020/12/09 01:13:15;;;;;;;12.53;6.27;;;4.90;72.60;;;;;;5032148;28;20040;-81
2020/12/09 01:15:42;;;;;;;15.37;7.13;;;4.90;72.50;;;;;;5025808;28;20057;-81
2020/12/09 01:18:08;;;;;;;10.37;6.57;;;4.90;72.80;;;;;;5026705;28;20018;-82
2020/12/09 01:20:34;;;;;;;12.17;6.37;;;4.90;72.60;;;;;;5025229;28;20491;-81
2020/12/09 01:22:59;;;;;;;10.30;7.50;;;4.90;72.50;;;;;;5030218;28;20044;-81
2020/12/09 01:25:25;;;;;;;13.50;7.97;;;4.90;72.80;;;;;;5022266;28;20033;-80
2020/12/09 01:27:51;;;;;;;17.73;11.73;;;4.90;72.80;;;;;;5029667;28;20111;-81
2020/12/09 01:30:16;;;;;;;15.03;10.67;;;4.90;72.80;;;;;;5021409;28;20392;-81
2020/12/09 01:32:42;;;;;;;13.07;8.73;;;4.90;73.00;;;;;;5033116;28;20126;-81
2020/12/09 01:35:08;;;;;;;15.17;8.07;;;4.90;72.90;;;;;;5024604;28;20040;-80
2020/12/09 01:37:34;;;;;;;12.00;7.43;;;5.00;72.80;;;;;;5021464;28;20030;-80
2020/12/09 01:39:59;;;;;;;12.13;7.77;;;5.00;72.80;;;;;;5028152;28;20033;-81
2020/12/09 01:42:25;;;;;;;10.93;7.70;;;5.00;72.80;;;;;;5028476;28;20057;-81
2020/12/09 01:44:51;;;;;;;12.80;7.80;;;5.10;72.70;;;;;;5028284;28;20033;-80
2020/12/09 01:47:17;;;;;;;10.33;7.00;;;5.10;72.60;;;;;;5025757;28;20025;-81
2020/12/09 01:49:42;;;;;;;9.80;7.27;;;5.10;72.70;;;;;;5015610;28;20471;-81
2020/12/09 01:52:08;;;;;;;12.43;7.53;;;5.10;72.70;;;;;;5023038;28;20037;-81
2020/12/09 01:54:34;;;;;;;13.80;8.80;;;5.00;72.70;;;;;;5029321;28;20026;-81
2020/12/09 01:57:05;;;;;;;12.27;8.30;;;5.10;72.80;;;;;;5017287;28;20060;-81
2020/12/09 01:59:30;;;;;;;8.57;5.57;;;5.00;72.60;;;;;;5020040;28;20034;-81
2020/12/09 02:01:56;;;;;;;11.37;6.33;;;5.00;72.70;;;;;;5029340;28;20044;-81
2020/12/09 02:04:22;;;;;;;8.13;6.27;;;5.00;72.90;;;;;;5020923;28;20061;-80
2020/12/09 02:06:53;;;;;;;14.60;6.73;;;5.10;73.00;;;;;;5029982;28;20021;-81
2020/12/09 02:09:19;;;;;;;11.87;8.27;;;5.00;72.80;;;;;;5023617;28;20030;-81
2020/12/09 02:11:46;;;;;;;14.03;8.27;;;5.00;72.70;;;;;;5027583;28;20021;-81
2020/12/09 02:14:12;;;;;;;12.80;8.43;;;5.00;72.90;;;;;;5021681;28;20018;-81
2020/12/09 02:16:38;;;;;;;13.37;8.63;;;5.10;73.10;;;;;;5024241;28;20029;-81
2020/12/09 02:19:03;;;;;;;18.40;9.23;;;5.10;73.00;;;;;;5017449;28;20022;-81
2020/12/09 02:21:36;;;;;;;12.03;7.93;;;5.10;72.80;;;;;;5021378;28;20045;-81
2020/12/09 02:24:03;;;;;;;12.35;8.48;;;5.10;72.80;;;;;;5046972;28;20109;-81
2020/12/09 02:26:29;;;;;;;12.10;8.97;;;5.10;72.70;;;;;;5022669;28;20581;-81
2020/12/09 02:28:56;;;;;;;12.10;8.37;;;5.10;72.70;;;;;;5027095;28;20029;-80
2020/12/09 02:31:22;;;;;;;13.63;9.53;;;5.10;73.00;;;;;;5029937;28;20049;-80
2020/12/09 02:33:48;;;;;;;13.20;9.10;;;5.10;72.90;;;;;;5024443;28;20022;-81
2020/12/09 02:36:15;;;;;;;16.03;9.90;;;5.20;72.90;;;;;;5031835;28;20083;-81
2020/12/09 02:38:41;;;;;;;13.40;9.27;;;5.20;72.90;;;;;;5020251;28;20076;-80
2020/12/09 02:41:07;;;;;;;13.83;9.67;;;5.20;72.80;;;;;;5026909;28;20110;-81
2020/12/09 02:43:33;;;;;;;15.53;10.57;;;5.10;72.80;;;;;;5025088;28;20471;-81
2020/12/09 02:45:59;;;;;;;13.10;8.97;;;5.20;73.00;;;;;;5023302;28;20080;-81
2020/12/09 02:48:24;;;;;;;11.07;8.80;;;5.20;72.90;;;;;;5024875;28;20476;-81
2020/12/09 02:50:50;;;;;;;12.73;8.13;;;5.20;72.80;;;;;;5031464;28;20033;-81
2020/12/09 02:53:16;;;;;;;13.97;8.77;;;5.10;72.90;;;;;;5025448;28;20433;-81
2020/12/09 02:55:41;;;;;;;12.87;8.63;;;5.20;73.00;;;;;;5018294;28;20072;-81
2020/12/09 02:58:07;;;;;;;11.33;6.60;;;5.20;72.90;;;;;;5022746;28;20018;-81
2020/12/09 03:00:33;;;;;;;10.40;7.67;;;5.20;72.80;;;;;;5030962;28;20033;-81
2020/12/09 03:02:58;;;;;;;11.80;8.20;;;5.20;73.00;;;;;;5029761;28;20048;-81
2020/12/09 03:05:24;;;;;;;12.13;7.83;;;5.20;72.90;;;;;;5028988;28;20029;-81
2020/12/09 03:07:50;;;;;;;13.13;8.83;;;5.20;73.00;;;;;;5031124;28;20163;-81
2020/12/09 03:10:16;;;;;;;15.00;9.60;;;5.20;73.00;;;;;;5024042;28;20548;-81
2020/12/09 03:12:41;;;;;;;14.90;9.83;;;5.20;72.90;;;;;;5037170;28;20380;-81
2020/12/09 03:15:07;;;;;;;96.43;43.43;;;5.30;72.90;;;;;;5024272;28;20028;-81
2020/12/09 03:17:33;;;;;;;135.90;51.27;;;5.30;72.80;;;;;;5029060;28;20375;-81
2020/12/09 03:19:58;;;;;;;61.27;28.87;;;5.30;72.70;;;;;;5022630;28;20029;-81
2020/12/09 03:22:24;;;;;;;39.80;21.83;;;5.30;72.60;;;;;;5028207;28;20036;-80
2020/12/09 03:24:50;;;;;;;30.93;17.73;;;5.30;72.60;;;;;;5025796;28;20049;-81
2020/12/09 03:27:15;;;;;;;28.13;17.90;;;5.30;72.70;;;;;;5020602;28;20675;-81
2020/12/09 03:29:41;;;;;;;21.57;14.17;;;5.30;72.70;;;;;;5019479;28;20044;-81
2020/12/09 03:32:07;;;;;;;18.10;11.43;;;5.30;72.70;;;;;;5030571;28;20032;-81
2020/12/09 03:34:32;;;;;;;15.57;10.80;;;5.30;72.60;;;;;;5028232;28;20129;-81
2020/12/09 03:36:58;;;;;;;13.17;9.13;;;5.30;72.50;;;;;;5021162;28;20034;-81
2020/12/09 03:39:24;;;;;;;15.07;9.60;;;5.30;72.60;;;;;;5015264;28;20084;-81
2020/12/09 03:41:49;;;;;;;17.23;12.27;;;5.30;72.70;;;;;;5026903;28;20057;-81
2020/12/09 03:44:15;;;;;;;17.60;10.43;;;5.30;72.80;;;;;;5022937;28;20052;-81
2020/12/09 03:46:41;;;;;;;16.33;9.87;;;5.20;72.60;;;;;;5020677;28;20030;-81
2020/12/09 03:49:06;;;;;;;14.87;9.83;;;5.20;72.50;;;;;;5027238;28;20036;-81
2020/12/09 03:51:32;;;;;;;13.80;9.40;;;5.20;72.90;;;;;;5018214;28;20096;-81
2020/12/09 03:53:58;;;;;;;14.70;9.90;;;5.20;73.10;;;;;;5025580;28;20056;-81
2020/12/09 03:56:23;;;;;;;15.43;9.37;;;5.20;73.10;;;;;;5022819;28;20477;-81
2020/12/09 03:58:49;;;;;;;14.20;8.50;;;5.30;73.00;;;;;;5028312;28;20436;-81
2020/12/09 04:01:15;;;;;;;14.63;8.97;;;5.30;72.90;;;;;;5019294;28;20038;-81
2020/12/09 04:03:40;;;;;;;12.57;8.23;;;5.30;72.90;;;;;;5028187;28;20040;-81
2020/12/09 04:06:06;;;;;;;14.93;9.00;;;5.40;72.90;;;;;;5028733;28;20029;-81
2020/12/09 04:08:32;;;;;;;13.63;9.87;;;5.30;72.90;;;;;;5033507;28;20095;-81
2020/12/09 04:10:57;;;;;;;14.80;10.43;;;5.30;72.90;;;;;;5018523;28;20053;-81
2020/12/09 04:13:23;;;;;;;17.70;11.20;;;5.30;72.90;;;;;;5028626;28;20032;-81
2020/12/09 04:15:49;;;;;;;16.17;10.70;;;5.30;72.80;;;;;;5028290;28;20030;-81
2020/12/09 04:18:14;;;;;;;17.70;11.47;;;5.30;72.90;;;;;;5023272;28;20025;-81
2020/12/09 04:20:40;;;;;;;18.53;10.43;;;5.30;72.80;;;;;;5019530;28;20457;-81
2020/12/09 04:23:06;;;;;;;14.70;10.17;;;5.30;72.80;;;;;;5023322;28;20025;-81
2020/12/09 04:25:32;;;;;;;12.57;8.57;;;5.20;73.10;;;;;;5029750;28;20094;-81
2020/12/09 04:27:57;;;;;;;13.73;9.50;;;5.30;73.10;;;;;;5030843;28;20167;-81
2020/12/09 04:30:23;;;;;;;13.87;9.07;;;5.30;73.10;;;;;;5025957;28;20030;-81
2020/12/09 04:32:49;;;;;;;14.70;10.43;;;5.40;73.00;;;;;;5029048;28;20033;-81
2020/12/09 04:35:15;;;;;;;16.30;11.10;;;5.30;73.00;;;;;;5026704;28;20413;-80
2020/12/09 04:37:41;;;;;;;17.57;11.40;;;5.30;72.90;;;;;;5025968;28;20024;-81
2020/12/09 04:40:07;;;;;;;16.67;11.00;;;5.30;73.10;;;;;;5031841;28;20393;-81
2020/12/09 04:42:33;;;;;;;19.47;12.30;;;5.30;73.00;;;;;;5022887;28;20443;-81
2020/12/09 04:44:59;;;;;;;15.30;11.47;;;5.40;72.90;;;;;;5026621;28;20037;-81
2020/12/09 04:47:43;;;;;;;18.17;12.53;;;5.40;72.90;;;;;;5034727;28;20025;-81
2020/12/09 04:50:12;;;;;;;16.97;11.77;;;5.40;73.00;;;;;;5031704;28;20029;-81
2020/12/09 04:52:46;;;;;;;19.67;12.53;;;5.40;72.80;;;;;;5031776;28;20018;-81
2020/12/09 04:55:17;;;;;;;21.53;13.57;;;5.40;72.90;;;;;;5025295;28;20040;-81
2020/12/09 04:58:02;;;;;;;19.47;12.97;;;5.40;72.90;;;;;;5024130;28;20075;-81
2020/12/09 05:00:29;;;;;;;16.70;12.93;;;5.40;72.90;;;;;;5031871;28;20484;-81
2020/12/09 05:03:11;;;;;;;21.17;15.57;;;5.40;72.90;;;;;;5028981;28;20030;-81
2020/12/09 05:05:37;;;;;;;20.70;13.00;;;5.40;73.00;;;;;;5030689;28;20029;-81
2020/12/09 05:08:06;;;;;;;18.00;14.20;;;5.40;73.00;;;;;;5032683;28;20029;-81
2020/12/09 05:10:34;;;;;;;20.20;13.50;;;5.40;73.00;;;;;;5028626;28;20036;-81
2020/12/09 05:13:02;;;;;;;18.40;13.73;;;5.40;73.10;;;;;;5029803;28;20029;-81
2020/12/09 05:15:30;;;;;;;21.23;14.33;;;5.40;73.20;;;;;;5029373;28;20071;-81
2020/12/09 05:18:09;;;;;;;18.20;13.93;;;5.30;73.30;;;;;;5018981;28;20370;-82
2020/12/09 05:20:42;;;;;;;22.53;14.20;;;5.40;73.40;;;;;;5023823;28;20459;-81
2020/12/09 05:23:10;;;;;;;19.57;13.93;;;5.30;73.20;;;;;;5028070;28;20036;-81
2020/12/09 05:25:38;;;;;;;21.37;14.40;;;5.30;73.40;;;;;;5024929;28;20022;-81
2020/12/09 05:28:05;;;;;;;17.97;13.10;;;5.30;73.30;;;;;;5032848;28;20029;-81
2020/12/09 05:30:57;;;;;;;20.17;13.63;;;5.30;73.40;;;;;;5024246;28;20611;-81
2020/12/09 05:33:33;;;;;;;22.07;13.53;;;5.40;73.40;;;;;;5030357;28;20109;-81
2020/12/09 05:36:03;;;;;;;20.03;14.03;;;5.30;73.20;;;;;;5021524;28;20051;-81
2020/12/09 05:38:30;;;;;;;21.77;14.30;;;5.30;73.30;;;;;;5028249;28;20303;-81
2020/12/09 05:40:57;;;;;;;19.67;13.60;;;5.20;73.70;;;;;;5028727;28;20068;-81
2020/12/09 05:43:23;;;;;;;21.63;14.57;;;5.30;73.80;;;;;;5024238;28;20069;-81
2020/12/09 05:45:51;;;;;;;21.33;14.03;;;5.30;73.70;;;;;;5029527;28;20075;-81
2020/12/09 05:48:19;;;;;;;20.80;13.83;;;5.30;73.60;;;;;;5031965;28;20029;-81
2020/12/09 05:50:52;;;;;;;21.03;14.17;;;5.30;73.60;;;;;;5019563;28;20033;-81
2020/12/09 05:53:21;;;;;;;20.50;14.27;;;5.20;73.60;;;;;;5026193;28;20046;-80
2020/12/09 05:55:47;;;;;;;19.20;13.43;;;5.20;73.60;;;;;;5029380;28;20707;-81
2020/12/09 05:58:27;;;;;;;22.67;14.30;;;5.30;73.40;;;;;;5026404;28;20032;-82
2020/12/09 06:01:16;;;;;;;17.50;12.00;;;5.20;73.60;;;;;;5028945;28;20427;-81
2020/12/09 06:03:55;;;;;;;21.63;13.83;;;5.30;73.60;;;;;;5028347;28;20036;-80
2020/12/09 06:06:29;;;;;;;26.73;15.57;;;5.30;73.60;;;;;;5025243;28;20112;-81
2020/12/09 06:08:59;;;;;;;22.20;14.77;;;5.30;73.60;;;;;;5030825;28;20395;-81
2020/12/09 06:11:31;;;;;;;22.07;13.90;;;5.30;73.60;;;;;;5031060;28;20124;-81
2020/12/09 06:13:57;;;;;;;24.17;13.90;;;5.30;73.60;;;;;;5031314;28;20038;-81
2020/12/09 06:16:23;;;;;;;21.67;14.50;;;5.20;73.60;;;;;;5017407;28;20032;-81
2020/12/09 06:18:55;;;;;;;20.47;13.53;;;5.30;73.60;;;;;;5026815;28;20642;-81
2020/12/09 06:21:22;;;;;;;20.00;13.40;;;5.20;73.50;;;;;;5026017;28;20666;-81
2020/12/09 06:23:49;;;;;;;18.30;13.33;;;5.30;73.50;;;;;;5031505;28;20026;-81
2020/12/09 06:26:15;;;;;;;21.63;13.67;;;5.20;73.60;;;;;;5017571;28;21426;-81
2020/12/09 06:28:47;;;;;;;19.43;12.70;;;5.30;73.60;;;;;;5020931;28;20120;-81
2020/12/09 06:31:21;;;;;;;18.43;12.87;;;5.30;73.60;;;;;;5031194;28;20025;-81
2020/12/09 06:33:51;;;;;;;19.47;13.53;;;5.30;73.50;;;;;;5012888;28;20026;-81
2020/12/09 06:36:23;;;;;;;24.97;15.20;;;5.30;73.60;;;;;;5025598;28;20025;-81
2020/12/09 06:39:07;;;;;;;21.00;15.13;;;5.30;73.50;;;;;;5023217;28;20032;-82
2020/12/09 06:41:33;;;;;;;19.43;13.90;;;5.30;73.60;;;;;;5024267;28;20033;-80
2020/12/09 06:44:05;;;;;;;24.17;13.27;;;5.30;73.60;;;;;;5027547;28;20545;-80
2020/12/09 06:46:44;;;;;;;22.30;13.25;;;5.30;73.50;;;;;;5031038;28;20034;-80
2020/12/09 06:49:31;;;;;;;18.57;12.90;;;5.30;73.60;;;;;;5023006;28;20045;-80
2020/12/09 06:52:10;;;;;;;18.60;13.67;;;5.30;73.60;;;;;;5021044;28;20045;-80
2020/12/09 06:54:46;;;;;;;21.67;15.43;;;5.20;73.40;;;;;;5016703;28;20433;-80
2020/12/09 06:57:16;;;;;;;17.47;13.53;;;5.20;73.50;;;;;;5028988;28;20044;-81
2020/12/09 06:59:42;;;;;;;24.23;14.87;;;5.20;73.60;;;;;;5020314;28;20087;-81
2020/12/09 07:02:08;;;;;;;21.27;15.87;;;5.30;73.60;;;;;;5017556;28;20117;-81
2020/12/09 07:04:52;;;;;;;19.90;14.13;;;5.30;73.50;;;;;;5030556;28;20102;-81
2020/12/09 07:07:33;;;;;;;21.23;15.53;;;5.30;73.60;;;;;;5030876;28;20056;-81
2020/12/09 07:10:00;;;;;;;21.50;14.87;;;5.20;73.60;;;;;;5016221;28;20116;-81
2020/12/09 07:12:27;;;;;;;24.07;16.83;;;5.20;73.50;;;;;;5029416;28;20049;-81
2020/12/09 07:14:54;;;;;;;24.83;16.23;;;5.20;73.70;;;;;;5031142;28;20376;-81
2020/12/09 07:17:22;;;;;;;27.90;15.43;;;5.20;73.80;;;;;;5022542;28;20029;-80
2020/12/09 07:19:48;;;;;;;30.53;17.73;;;5.20;73.80;;;;;;5015234;28;20130;-80
2020/12/09 07:22:14;;;;;;;22.90;15.87;;;5.20;73.80;;;;;;5029400;28;20033;-80
2020/12/09 07:24:40;;;;;;;29.03;16.37;;;5.20;74.40;;;;;;5020654;28;20472;-81
2020/12/09 07:27:09;;;;;;;24.20;16.73;;;5.20;73.80;;;;;;5020810;28;20121;-81
2020/12/09 07:29:37;;;;;;;25.70;16.33;;;5.20;73.60;;;;;;5030370;28;20499;-81
2020/12/09 07:32:04;;;;;;;25.60;17.07;;;5.20;73.70;;;;;;5025331;28;20116;-81
2020/12/09 07:34:30;;;;;;;21.47;15.77;;;5.20;74.00;;;;;;5026708;28;20051;-81
2020/12/09 07:36:55;;;;;;;21.47;15.20;;;5.20;74.00;;;;;;5022762;28;20021;-81
2020/12/09 07:39:27;;;;;;;21.10;15.57;;;5.20;74.10;;;;;;5024176;28;20111;-81
2020/12/09 07:41:58;;;;;;;23.73;15.10;;;5.30;73.90;;;;;;5020647;28;20044;-81
2020/12/09 07:44:24;;;;;;;19.87;15.10;;;5.30;73.90;;;;;;5020013;28;20093;-81
2020/12/09 07:46:57;;;;;;;18.60;14.20;;;5.30;73.70;;;;;;5026225;28;20032;-81
2020/12/09 07:49:24;;;;;;;17.50;12.63;;;5.30;73.70;;;;;;5027979;28;20843;-81
2020/12/09 07:51:52;;;;;;;14.77;11.57;;;5.30;73.70;;;;;;5024001;28;20470;-81
2020/12/09 07:54:19;;;;;;;17.43;13.10;;;5.30;73.60;;;;;;5023709;28;20108;-81
2020/12/09 07:56:45;;;;;;;14.97;12.37;;;5.30;73.70;;;;;;5030775;28;20021;-81
2020/12/09 07:59:12;;;;;;;17.40;13.47;;;5.40;73.60;;;;;;5019201;28;20029;-81
2020/12/09 08:01:39;;;;;;;17.83;13.07;;;5.40;73.70;;;;;;5025891;28;20032;-81
2020/12/09 08:04:05;;;;;;;18.10;12.73;;;5.40;73.70;;;;;;5033995;28;20465;-81
2020/12/09 08:06:33;;;;;;;18.37;13.30;;;5.40;73.50;;;;;;5033896;28;20392;-81
2020/12/09 08:09:17;;;;;;;14.87;12.10;;;5.40;73.50;;;;;;5029382;28;20099;-81
2020/12/09 08:11:44;;;;;;;15.07;12.23;;;5.50;73.50;;;;;;5028386;28;20025;-81
2020/12/09 08:14:11;;;;;;;15.27;12.27;;;5.40;73.40;;;;;;5034805;28;20428;-81
2020/12/09 08:16:38;;;;;;;15.23;11.00;;;5.50;73.50;;;;;;5026707;28;20018;-81
2020/12/09 08:19:08;;;;;;;14.57;11.70;;;5.50;73.50;;;;;;5023100;28;20053;-81
2020/12/09 08:21:34;;;;;;;15.17;12.47;;;5.50;73.30;;;;;;5025572;28;20034;-81
2020/12/09 08:24:11;;;;;;;15.30;12.53;;;5.50;73.50;;;;;;5028579;28;20052;-81
2020/12/09 08:26:37;;;;;;;16.43;12.10;;;5.50;73.50;;;;;;5026667;28;20022;-81
2020/12/09 08:29:04;;;;;;;15.93;12.50;;;5.50;73.50;;;;;;5024757;28;20034;-82
2020/12/09 08:31:30;;;;;;;18.37;12.83;;;5.50;73.50;;;;;;5030046;28;20633;-81
2020/12/09 08:33:56;;;;;;;15.67;12.53;;;5.50;73.40;;;;;;5023183;28;20059;-81
2020/12/09 08:36:23;;;;;;;17.30;12.27;;;5.50;73.40;;;;;;5020473;28;20117;-81
2020/12/09 08:38:58;;;;;;;17.83;12.70;;;5.50;73.50;;;;;;5031917;28;20539;-81
2020/12/09 08:41:35;;;;;;;13.30;10.87;;;5.50;73.40;;;;;;5038718;28;20026;-81
2020/12/09 08:44:03;;;;;;;16.80;11.93;;;5.50;73.50;;;;;;5032746;28;20820;-81
2020/12/09 08:46:30;;;;;;;18.37;13.07;;;5.50;73.50;;;;;;5025145;28;20025;-81
2020/12/09 08:48:57;;;;;;;18.57;13.33;;;5.50;73.50;;;;;;5024035;28;20029;-81
2020/12/09 08:51:33;;;;;;;18.73;13.13;;;5.40;73.50;;;;;;5025829;28;20568;-81
2020/12/09 08:54:00;;;;;;;19.90;14.33;;;5.50;73.60;;;;;;5027310;28;20029;-82
2020/12/09 08:56:31;;;;;;;16.93;12.73;;;5.50;73.60;;;;;;5033787;28;20018;-81
2020/12/09 08:58:57;;;;;;;24.77;15.03;;;5.50;73.60;;;;;;5028630;28;20033;-81
2020/12/09 09:01:23;;;;;;;17.03;13.60;;;5.50;73.50;;;;;;5022888;28;20067;-81
2020/12/09 09:03:54;;;;;;;19.60;12.60;;;5.50;73.60;;;;;;5025641;28;20025;-81
2020/12/09 09:06:19;;;;;;;18.93;13.43;;;5.50;73.50;;;;;;5025023;28;20033;-81
2020/12/09 09:08:45;;;;;;;21.10;14.80;;;5.50;73.50;;;;;;5030457;28;20022;-81
2020/12/09 09:11:11;;;;;;;16.77;13.70;;;5.50;73.50;;;;;;5024138;28;20029;-81
2020/12/09 09:13:36;;;;;;;16.87;13.17;;;5.50;73.50;;;;;;5019563;28;20044;-81
2020/12/09 09:16:07;;;;;;;16.00;12.47;;;5.60;73.50;;;;;;5031951;28;20030;-81
2020/12/09 09:18:34;;;;;;;17.90;13.23;;;5.60;73.40;;;;;;5029711;28;20022;-81
2020/12/09 09:20:59;;;;;;;20.33;15.10;;;5.60;73.40;;;;;;5033153;28;20033;-81
2020/12/09 09:23:25;;;;;;;18.83;13.57;;;5.60;73.30;;;;;;5018041;28;20059;-81
2020/12/09 09:25:51;;;;;;;15.77;13.07;;;5.70;73.40;;;;;;5027856;28;20025;-80
2020/12/09 09:28:17;;;;;;;18.70;14.03;;;5.70;73.30;;;;;;5030593;28;20366;-81
2020/12/09 09:30:43;;;;;;;19.30;13.13;;;5.70;73.40;;;;;;5041368;28;20392;-81
2020/12/09 09:33:08;;;;;;;24.67;14.07;;;5.70;73.40;;;;;;5028969;28;20033;-81
2020/12/09 09:35:34;;;;;;;20.50;14.17;;;5.70;73.20;;;;;;5023642;28;20025;-81
2020/12/09 09:38:00;;;;;;;20.07;13.90;;;5.70;73.30;;;;;;5031667;28;20021;-81
2020/12/09 09:40:25;;;;;;;21.40;12.90;;;5.70;73.30;;;;;;5024745;28;20025;-81
2020/12/09 09:42:51;;;;;;;16.27;11.70;;;5.70;73.20;;;;;;5032060;28;20056;-81
2020/12/09 09:45:17;;;;;;;15.37;11.80;;;5.70;73.20;;;;;;5020711;28;20034;-81
2020/12/09 09:47:43;;;;;;;15.03;11.27;;;5.70;73.20;;;;;;5030892;28;20064;-81
2020/12/09 09:50:09;;;;;;;16.00;11.63;;;5.70;73.20;;;;;;5016730;28;20060;-81
2020/12/09 09:52:35;;;;;;;14.73;11.47;;;5.70;73.20;;;;;;5029186;28;20080;-81
2020/12/09 09:55:02;;;;;;;16.20;11.73;;;5.70;73.20;;;;;;5025361;28;20084;-81
2020/12/09 09:57:27;;;;;;;17.03;12.40;;;5.80;73.20;;;;;;5024141;28;20538;-81
2020/12/09 09:59:53;;;;;;;14.70;11.80;;;5.80;73.20;;;;;;5032180;28;20057;-81
2020/12/09 10:02:19;;;;;;;19.40;13.87;;;5.80;73.20;;;;;;5032056;28;20029;-81
2020/12/09 10:04:45;;;;;;;18.17;14.03;;;5.80;73.20;;;;;;5023149;28;20029;-81
2020/12/09 10:07:11;;;;;;;18.37;12.37;;;5.80;73.10;;;;;;5030236;28;20028;-81
2020/12/09 10:09:37;;;;;;;17.37;12.67;;;5.80;73.10;;;;;;5030913;28;20021;-82
2020/12/09 10:12:02;;;;;;;16.17;12.83;;;5.80;73.20;;;;;;5031571;28;20074;-81
2020/12/09 10:14:28;;;;;;;18.27;13.63;;;5.80;73.20;;;;;;5019533;28;20108;-81
2020/12/09 10:16:57;;;;;;;19.07;13.23;;;5.80;73.20;;;;;;5022913;28;20366;-81
2020/12/09 10:19:23;;;;;;;16.17;13.03;;;5.80;73.20;;;;;;5024645;28;20909;-81
2020/12/09 10:21:49;;;;;;;16.13;12.43;;;5.80;73.20;;;;;;5030393;28;20018;-81
2020/12/09 10:24:15;;;;;;;16.17;12.77;;;5.80;73.10;;;;;;5023601;28;20045;-81
2020/12/09 10:26:42;;;;;;;17.73;13.57;;;5.80;73.10;;;;;;5023500;28;20022;-81
2020/12/09 10:29:09;;;;;;;17.07;12.90;;;5.80;73.20;;;;;;5030247;28;20021;-81
2020/12/09 10:31:41;;;;;;;23.70;13.40;;;5.70;73.10;;;;;;5026136;28;20037;-81
2020/12/09 10:34:09;;;;;;;19.50;13.27;;;5.70;73.30;;;;;;5020764;28;21092;-81
2020/12/09 10:36:36;;;;;;;19.47;13.10;;;5.70;73.30;;;;;;5022061;28;20037;-81
2020/12/09 10:39:04;;;;;;;18.43;13.37;;;5.80;73.40;;;;;;5013392;28;20477;-81
2020/12/09 10:41:30;;;;;;;20.00;13.67;;;5.80;73.30;;;;;;5018150;28;20047;-81
2020/12/09 10:43:55;;;;;;;17.63;13.53;;;5.80;73.20;;;;;;5011904;28;20037;-81
2020/12/09 10:46:30;;;;;;;26.83;15.10;;;5.80;73.20;;;;;;5021638;28;20030;-81
2020/12/09 10:48:55;;;;;;;25.97;17.23;;;5.80;73.30;;;;;;5028764;28;20025;-81
2020/12/09 10:51:21;;;;;;;24.57;17.10;;;5.80;73.30;;;;;;5028307;28;20386;-81
2020/12/09 10:53:47;;;;;;;25.27;18.67;;;5.80;73.20;;;;;;5025332;28;20022;-81
2020/12/09 10:56:12;;;;;;;28.53;17.53;;;5.80;73.30;;;;;;5029991;28;20084;-81
2020/12/09 10:58:38;;;;;;;26.00;18.23;;;5.80;73.20;;;;;;5025586;28;20117;-81
2020/12/09 11:01:04;;;;;;;32.03;21.20;;;5.80;73.40;;;;;;5023247;28;20037;-81
2020/12/09 11:03:30;;;;;;;27.97;20.47;;;5.90;73.40;;;;;;5023872;28;20051;-81
2020/12/09 11:05:55;;;;;;;27.73;21.03;;;5.90;73.40;;;;;;5028774;28;20396;-81
2020/12/09 11:08:21;;;;;;;29.67;21.20;;;5.90;73.30;;;;;;5027648;28;20022;-81
2020/12/09 11:10:47;;;;;;;27.00;19.93;;;5.90;73.20;;;;;;5025760;28;20034;-81
2020/12/09 11:13:13;;;;;;;28.37;19.80;;;5.90;73.40;;;;;;5020372;28;20021;-81
2020/12/09 11:15:39;;;;;;;25.47;16.67;;;5.90;73.30;;;;;;5020130;28;20114;-81
2020/12/09 11:18:05;;;;;;;25.80;16.30;;;5.90;73.30;;;;;;5024049;28;20065;-82
2020/12/09 11:20:30;;;;;;;24.23;17.63;;;6.00;73.40;;;;;;5018810;28;20484;-81
2020/12/09 11:22:56;;;;;;;23.20;15.57;;;5.90;73.20;;;;;;5025727;28;20136;-81
2020/12/09 11:25:23;;;;;;;29.90;17.57;;;5.90;73.30;;;;;;5014650;28;20034;-81
2020/12/09 11:27:50;;;;;;;23.13;16.63;;;5.90;73.30;;;;;;5026206;28;20014;-81
2020/12/09 11:30:15;;;;;;;25.70;16.37;;;6.00;73.40;;;;;;5019541;28;20029;-81
2020/12/09 11:32:42;;;;;;;27.83;17.70;;;6.00;73.20;;;;;;5023431;28;20477;-81
2020/12/09 11:35:07;;;;;;;27.13;16.77;;;6.00;74.00;;;;;;5019716;28;20032;-81
2020/12/09 11:37:34;;;;;;;25.57;16.40;;;6.00;73.40;;;;;;5024443;28;20397;-81
2020/12/09 11:40:00;;;;;;;24.67;16.40;;;6.00;73.50;;;;;;5026234;28;20037;-81
2020/12/09 11:42:25;;;;;;;22.30;16.53;;;6.00;73.40;;;;;;5030204;28;20099;-81
2020/12/09 11:44:51;;;;;;;25.40;17.67;;;6.00;73.40;;;;;;5027516;28;20029;-81
2020/12/09 11:47:18;;;;;;;29.07;19.10;;;6.10;73.40;;;;;;5031060;28;20582;-81
2020/12/09 11:49:44;;;;;;;26.87;17.30;;;6.00;73.40;;;;;;5033750;28;20423;-81
2020/12/09 11:52:09;;;;;;;28.47;17.80;;;6.10;73.40;;;;;;5047163;28;20022;-81
2020/12/09 11:54:35;;;;;;;27.80;17.90;;;6.10;73.80;;;;;;5025108;28;20068;-81
2020/12/09 11:57:01;;;;;;;24.50;17.37;;;6.10;73.40;;;;;;5033840;28;20357;-81
2020/12/09 11:59:27;;;;;;;23.83;17.13;;;6.00;73.40;;;;;;5025016;28;20026;-81
2020/12/09 12:01:53;;;;;;;26.33;17.53;;;6.10;73.40;;;;;;5026077;28;20032;-81
2020/12/09 12:04:18;;;;;;;24.20;17.10;;;6.10;73.30;;;;;;5025850;28;20026;-81
2020/12/09 12:06:45;;;;;;;29.87;21.23;;;6.10;73.30;;;;;;5029724;28;20032;-81
2020/12/09 12:09:11;;;;;;;30.63;19.83;;;6.10;73.40;;;;;;5015997;28;20018;-81
2020/12/09 12:11:37;;;;;;;43.00;24.00;;;6.10;73.40;;;;;;5033916;28;20056;-81
2020/12/09 12:14:02;;;;;;;31.53;20.60;;;6.20;73.40;;;;;;5032346;28;20421;-81
2020/12/09 12:16:28;;;;;;;31.67;20.27;;;6.20;73.30;;;;;;5033682;28;20033;-81
2020/12/09 12:18:54;;;;;;;25.03;18.07;;;6.30;73.20;;;;;;5019162;28;20022;-81
2020/12/09 12:21:23;;;;;;;24.97;18.20;;;6.30;73.10;;;;;;5020063;28;20116;-81
2020/12/09 12:23:49;;;;;;;26.03;18.53;;;6.30;73.00;;;;;;5029415;28;20025;-81
2020/12/09 12:26:16;;;;;;;28.43;19.07;;;6.30;73.00;;;;;;5027820;28;20838;-81
2020/12/09 12:28:42;;;;;;;24.13;18.20;;;6.20;73.00;;;;;;5033533;28;20025;-81
2020/12/09 12:31:16;;;;;;;34.53;18.60;;;6.30;73.10;;;;;;5025923;28;20030;-81
2020/12/09 12:33:42;;;;;;;25.50;18.23;;;6.30;72.90;;;;;;5035672;28;20076;-80
2020/12/09 12:36:08;;;;;;;33.33;20.60;;;6.20;73.00;;;;;;5033105;28;20029;-81
2020/12/09 12:38:34;;;;;;;61.30;36.80;;;6.30;73.20;;;;;;5034628;28;20025;-81
2020/12/09 12:41:01;;;;;;;42.60;28.23;;;6.30;73.20;;;;;;5031487;28;20040;-81
2020/12/09 12:43:27;;;;;;;39.13;26.83;;;6.30;73.10;;;;;;5018311;28;20049;-81